sensor_id;sensor_type;location;lat;lon;timestamp;temperature;humidity
17172;DHT22;8701;50.150;8.756;2023-03-25T00:01:13;10.40;99.90
17172;DHT22;8701;50.150;8.756;2023-03-25T00:05:17;10.40;99.90
17172;DHT22;8701;50.150;8.756;2023-03-25T00:09:21;10.40;99.90
17172;DHT22;8701;50.150;8.756;2023-03-25T00:13:24;10.30;99.90
17172;DHT22;8701;50.150;8.756;2023-03-25T00:17:26;10.30;99.90
17172;DHT22;8701;50.150;8.756;2023-03-25T00:21:30;10.10;99.90
17172;DHT22;8701;50.150;8.756;2023-03-25T00:25:35;10.10;99.90
17172;DHT22;8701;50.150;8.756;2023-03-25T00:29:37;10.00;99.90
17172;DHT22;8701;50.150;8.756;2023-03-25T00:33:41;9.90;99.90
17172;DHT22;8701;50.150;8.756;2023-03-25T00:37:43;9.90;99.90
17172;DHT22;8701;50.150;8.756;2023-03-25T00:41:47;9.80;99.90
17172;DHT22;8701;50.150;8.756;2023-03-25T00:45:53;9.70;99.90
17172;DHT22;8701;50.150;8.756;2023-03-25T00:49:56;9.80;99.90
17172;DHT22;8701;50.150;8.756;2023-03-25T00:53:58;9.70;99.90
17172;DHT22;8701;50.150;8.756;2023-03-25T00:58:02;9.70;99.90
17172;DHT22;8701;50.150;8.756;2023-03-25T01:02:05;9.70;99.90
17172;DHT22;8701;50.150;8.756;2023-03-25T01:06:09;9.60;99.90
17172;DHT22;8701;50.150;8.756;2023-03-25T01:10:11;9.60;99.90
17172;DHT22;8701;50.150;8.756;2023-03-25T01:14:18;9.60;99.90
17172;DHT22;8701;50.150;8.756;2023-03-25T01:18:20;9.60;99.90
17172;DHT22;8701;50.150;8.756;2023-03-25T01:22:23;9.60;99.90
17172;DHT22;8701;50.150;8.756;2023-03-25T01:26:25;9.70;99.90
17172;DHT22;8701;50.150;8.756;2023-03-25T01:30:29;9.70;99.90
17172;DHT22;8701;50.150;8.756;2023-03-25T01:34:31;9.70;99.90
17172;DHT22;8701;50.150;8.756;2023-03-25T01:38:39;9.70;99.90
17172;DHT22;8701;50.150;8.756;2023-03-25T01:42:41;9.80;99.90
17172;DHT22;8701;50.150;8.756;2023-03-25T01:46:45;9.70;99.90
17172;DHT22;8701;50.150;8.756;2023-03-25T01:50:51;9.70;99.90
17172;DHT22;8701;50.150;8.756;2023-03-25T01:54:54;9.70;99.90
17172;DHT22;8701;50.150;8.756;2023-03-25T01:58:58;9.70;99.90
17172;DHT22;8701;50.150;8.756;2023-03-25T02:03:03;9.70;99.90
17172;DHT22;8701;50.150;8.756;2023-03-25T02:07:06;9.70;99.90
17172;DHT22;8701;50.150;8.756;2023-03-25T02:11:09;9.70;99.90
17172;DHT22;8701;50.150;8.756;2023-03-25T02:15:13;9.70;99.90
17172;DHT22;8701;50.150;8.756;2023-03-25T02:24:29;9.60;99.90
17172;DHT22;8701;50.150;8.756;2023-03-25T02:28:38;9.60;99.90
17172;DHT22;8701;50.150;8.756;2023-03-25T02:33:11;9.60;99.90
17172;DHT22;8701;50.150;8.756;2023-03-25T02:42:27;9.70;99.90
17172;DHT22;8701;50.150;8.756;2023-03-25T02:46:33;9.60;99.90
17172;DHT22;8701;50.150;8.756;2023-03-25T02:50:44;9.60;99.90
17172;DHT22;8701;50.150;8.756;2023-03-25T02:54:49;9.50;99.90
17172;DHT22;8701;50.150;8.756;2023-03-25T02:58:56;9.50;99.90
17172;DHT22;8701;50.150;8.756;2023-03-25T03:03:01;9.50;99.90
17172;DHT22;8701;50.150;8.756;2023-03-25T03:07:08;9.50;99.90
17172;DHT22;8701;50.150;8.756;2023-03-25T03:11:22;9.40;99.90
17172;DHT22;8701;50.150;8.756;2023-03-25T03:15:39;9.40;99.90
17172;DHT22;8701;50.150;8.756;2023-03-25T03:19:47;9.40;99.90
17172;DHT22;8701;50.150;8.756;2023-03-25T03:23:56;9.40;99.90
17172;DHT22;8701;50.150;8.756;2023-03-25T03:28:06;9.30;99.90
17172;DHT22;8701;50.150;8.756;2023-03-25T03:32:16;9.30;99.90
17172;DHT22;8701;50.150;8.756;2023-03-25T03:36:24;9.40;99.90
17172;DHT22;8701;50.150;8.756;2023-03-25T03:40:31;9.40;99.90
17172;DHT22;8701;50.150;8.756;2023-03-25T03:44:37;9.40;99.90
17172;DHT22;8701;50.150;8.756;2023-03-25T03:48:44;9.40;99.90
17172;DHT22;8701;50.150;8.756;2023-03-25T03:52:51;9.40;99.90
17172;DHT22;8701;50.150;8.756;2023-03-25T03:57:01;9.40;99.90
17172;DHT22;8701;50.150;8.756;2023-03-25T04:01:07;9.40;99.90
17172;DHT22;8701;50.150;8.756;2023-03-25T04:05:17;9.40;99.90
17172;DHT22;8701;50.150;8.756;2023-03-25T04:09:24;9.20;99.90
17172;DHT22;8701;50.150;8.756;2023-03-25T04:13:40;9.20;99.90
17172;DHT22;8701;50.150;8.756;2023-03-25T04:17:44;9.10;99.90
17172;DHT22;8701;50.150;8.756;2023-03-25T04:21:49;9.10;99.90
17172;DHT22;8701;50.150;8.756;2023-03-25T04:25:54;9.00;99.90
17172;DHT22;8701;50.150;8.756;2023-03-25T04:30:07;9.00;99.90
17172;DHT22;8701;50.150;8.756;2023-03-25T04:34:11;8.90;99.90
17172;DHT22;8701;50.150;8.756;2023-03-25T04:38:17;8.80;99.90
17172;DHT22;8701;50.150;8.756;2023-03-25T04:42:19;8.80;99.90
17172;DHT22;8701;50.150;8.756;2023-03-25T04:46:26;8.90;99.90
17172;DHT22;8701;50.150;8.756;2023-03-25T04:50:29;8.90;99.90
17172;DHT22;8701;50.150;8.756;2023-03-25T04:54:34;8.90;99.90
17172;DHT22;8701;50.150;8.756;2023-03-25T04:58:41;9.00;99.90
17172;DHT22;8701;50.150;8.756;2023-03-25T05:02:49;9.00;99.90
17172;DHT22;8701;50.150;8.756;2023-03-25T05:06:55;9.00;99.90
17172;DHT22;8701;50.150;8.756;2023-03-25T05:10:59;9.00;99.90
17172;DHT22;8701;50.150;8.756;2023-03-25T05:15:04;9.00;99.90
17172;DHT22;8701;50.150;8.756;2023-03-25T05:19:09;9.00;99.90
17172;DHT22;8701;50.150;8.756;2023-03-25T05:23:13;9.00;99.90
17172;DHT22;8701;50.150;8.756;2023-03-25T05:27:24;9.00;99.90
17172;DHT22;8701;50.150;8.756;2023-03-25T05:31:29;9.00;99.90
17172;DHT22;8701;50.150;8.756;2023-03-25T05:35:31;9.00;99.90
17172;DHT22;8701;50.150;8.756;2023-03-25T05:39:35;9.00;99.90
17172;DHT22;8701;50.150;8.756;2023-03-25T05:43:43;9.00;99.90
17172;DHT22;8701;50.150;8.756;2023-03-25T05:47:49;9.00;99.90
17172;DHT22;8701;50.150;8.756;2023-03-25T05:51:52;8.90;99.90
17172;DHT22;8701;50.150;8.756;2023-03-25T05:55:56;8.90;99.90
17172;DHT22;8701;50.150;8.756;2023-03-25T06:00:04;8.90;99.90
17172;DHT22;8701;50.150;8.756;2023-03-25T06:04:12;8.90;99.90
17172;DHT22;8701;50.150;8.756;2023-03-25T06:08:20;8.80;99.90
17172;DHT22;8701;50.150;8.756;2023-03-25T06:12:27;8.90;99.90
17172;DHT22;8701;50.150;8.756;2023-03-25T06:16:34;8.80;99.90
17172;DHT22;8701;50.150;8.756;2023-03-25T06:20:37;8.80;99.90
17172;DHT22;8701;50.150;8.756;2023-03-25T06:24:40;8.80;99.90
17172;DHT22;8701;50.150;8.756;2023-03-25T06:28:44;8.80;99.90
17172;DHT22;8701;50.150;8.756;2023-03-25T06:32:49;8.80;99.90
17172;DHT22;8701;50.150;8.756;2023-03-25T06:36:56;8.80;99.90
17172;DHT22;8701;50.150;8.756;2023-03-25T06:40:59;9.00;99.90
17172;DHT22;8701;50.150;8.756;2023-03-25T06:45:10;9.10;99.90
17172;DHT22;8701;50.150;8.756;2023-03-25T06:49:22;9.20;99.90
17172;DHT22;8701;50.150;8.756;2023-03-25T06:53:29;9.20;99.90
17172;DHT22;8701;50.150;8.756;2023-03-25T06:57:35;9.30;99.90
17172;DHT22;8701;50.150;8.756;2023-03-25T07:01:41;9.40;99.90
17172;DHT22;8701;50.150;8.756;2023-03-25T07:05:46;9.50;99.90
17172;DHT22;8701;50.150;8.756;2023-03-25T07:10:00;9.40;99.90
17172;DHT22;8701;50.150;8.756;2023-03-25T07:14:06;9.60;99.90
17172;DHT22;8701;50.150;8.756;2023-03-25T07:18:16;9.60;99.90
17172;DHT22;8701;50.150;8.756;2023-03-25T07:22:43;9.90;99.90
17172;DHT22;8701;50.150;8.756;2023-03-25T07:27:10;9.80;99.90
17172;DHT22;8701;50.150;8.756;2023-03-25T07:31:37;10.00;99.90
17172;DHT22;8701;50.150;8.756;2023-03-25T07:35:41;10.30;99.90
17172;DHT22;8701;50.150;8.756;2023-03-25T07:39:55;10.90;99.90
17172;DHT22;8701;50.150;8.756;2023-03-25T07:44:01;11.40;99.90
17172;DHT22;8701;50.150;8.756;2023-03-25T07:48:38;11.20;99.90
17172;DHT22;8701;50.150;8.756;2023-03-25T07:52:44;12.10;99.90
17172;DHT22;8701;50.150;8.756;2023-03-25T07:56:51;12.60;99.90
17172;DHT22;8701;50.150;8.756;2023-03-25T08:00:57;13.10;99.90
17172;DHT22;8701;50.150;8.756;2023-03-25T08:05:24;13.70;99.90
17172;DHT22;8701;50.150;8.756;2023-03-25T08:09:37;13.80;99.90
17172;DHT22;8701;50.150;8.756;2023-03-25T08:13:41;13.50;99.90
17172;DHT22;8701;50.150;8.756;2023-03-25T08:17:45;14.60;99.90
17172;DHT22;8701;50.150;8.756;2023-03-25T08:21:48;15.90;99.90
17172;DHT22;8701;50.150;8.756;2023-03-25T08:25:59;16.70;99.90
17172;DHT22;8701;50.150;8.756;2023-03-25T08:30:24;15.50;99.90
17172;DHT22;8701;50.150;8.756;2023-03-25T08:34:29;14.20;99.90
17172;DHT22;8701;50.150;8.756;2023-03-25T08:38:40;13.50;99.90
17172;DHT22;8701;50.150;8.756;2023-03-25T08:42:42;13.60;99.90
17172;DHT22;8701;50.150;8.756;2023-03-25T08:46:48;14.60;99.90
17172;DHT22;8701;50.150;8.756;2023-03-25T08:50:51;14.90;99.90
17172;DHT22;8701;50.150;8.756;2023-03-25T08:54:54;14.80;99.90
17172;DHT22;8701;50.150;8.756;2023-03-25T08:58:58;14.50;99.90
17172;DHT22;8701;50.150;8.756;2023-03-25T09:03:05;13.80;99.90
17172;DHT22;8701;50.150;8.756;2023-03-25T09:07:08;13.50;99.90
17172;DHT22;8701;50.150;8.756;2023-03-25T09:11:22;13.50;99.90
17172;DHT22;8701;50.150;8.756;2023-03-25T09:15:31;13.30;99.90
17172;DHT22;8701;50.150;8.756;2023-03-25T09:19:39;12.90;99.90
17172;DHT22;8701;50.150;8.756;2023-03-25T09:23:51;12.60;99.90
17172;DHT22;8701;50.150;8.756;2023-03-25T09:27:57;12.50;99.90
17172;DHT22;8701;50.150;8.756;2023-03-25T09:32:00;12.30;99.90
17172;DHT22;8701;50.150;8.756;2023-03-25T09:36:05;12.60;99.90
17172;DHT22;8701;50.150;8.756;2023-03-25T09:40:10;13.10;99.90
17172;DHT22;8701;50.150;8.756;2023-03-25T09:44:20;13.30;99.90
17172;DHT22;8701;50.150;8.756;2023-03-25T09:48:31;14.60;99.90
17172;DHT22;8701;50.150;8.756;2023-03-25T09:52:46;13.90;99.90
17172;DHT22;8701;50.150;8.756;2023-03-25T09:56:54;12.90;99.90
17172;DHT22;8701;50.150;8.756;2023-03-25T10:05:56;9.70;99.90
17172;DHT22;8701;50.150;8.756;2023-03-25T10:10:08;8.80;99.90
17172;DHT22;8701;50.150;8.756;2023-03-25T10:15:14;8.80;99.90
17172;DHT22;8701;50.150;8.756;2023-03-25T10:19:45;9.30;99.90
17172;DHT22;8701;50.150;8.756;2023-03-25T10:24:16;9.50;99.90
17172;DHT22;8701;50.150;8.756;2023-03-25T10:28:40;11.80;99.90
17172;DHT22;8701;50.150;8.756;2023-03-25T10:32:48;14.00;99.90
17172;DHT22;8701;50.150;8.756;2023-03-25T10:36:53;14.80;99.90
17172;DHT22;8701;50.150;8.756;2023-03-25T10:41:10;14.90;99.90
17172;DHT22;8701;50.150;8.756;2023-03-25T10:45:16;16.70;99.90
17172;DHT22;8701;50.150;8.756;2023-03-25T10:49:21;18.00;99.90
17172;DHT22;8701;50.150;8.756;2023-03-25T10:53:25;18.70;99.90
17172;DHT22;8701;50.150;8.756;2023-03-25T10:57:29;19.50;99.90
17172;DHT22;8701;50.150;8.756;2023-03-25T11:01:37;18.40;99.90
17172;DHT22;8701;50.150;8.756;2023-03-25T11:05:40;18.40;99.90
17172;DHT22;8701;50.150;8.756;2023-03-25T11:09:42;18.60;99.90
17172;DHT22;8701;50.150;8.756;2023-03-25T11:13:44;18.90;99.90
17172;DHT22;8701;50.150;8.756;2023-03-25T11:17:59;19.90;99.90
17172;DHT22;8701;50.150;8.756;2023-03-25T11:22:08;20.00;99.90
17172;DHT22;8701;50.150;8.756;2023-03-25T11:26:15;20.40;99.90
17172;DHT22;8701;50.150;8.756;2023-03-25T11:30:21;19.90;99.90
17172;DHT22;8701;50.150;8.756;2023-03-25T11:34:24;18.30;99.90
17172;DHT22;8701;50.150;8.756;2023-03-25T11:38:28;18.00;99.90
17172;DHT22;8701;50.150;8.756;2023-03-25T11:42:36;19.00;99.90
17172;DHT22;8701;50.150;8.756;2023-03-25T11:46:41;18.90;99.90
17172;DHT22;8701;50.150;8.756;2023-03-25T11:50:47;17.30;99.90
17172;DHT22;8701;50.150;8.756;2023-03-25T11:54:53;16.40;99.90
17172;DHT22;8701;50.150;8.756;2023-03-25T11:58:58;16.00;99.90
17172;DHT22;8701;50.150;8.756;2023-03-25T12:03:03;15.80;99.90
17172;DHT22;8701;50.150;8.756;2023-03-25T12:07:08;15.80;99.90
17172;DHT22;8701;50.150;8.756;2023-03-25T12:11:14;16.00;99.90
17172;DHT22;8701;50.150;8.756;2023-03-25T12:15:29;16.70;99.90
17172;DHT22;8701;50.150;8.756;2023-03-25T12:19:40;17.30;99.90
17172;DHT22;8701;50.150;8.756;2023-03-25T12:23:54;18.30;99.90
17172;DHT22;8701;50.150;8.756;2023-03-25T12:28:18;18.40;99.90
17172;DHT22;8701;50.150;8.756;2023-03-25T12:32:32;18.20;99.90
17172;DHT22;8701;50.150;8.756;2023-03-25T12:36:44;18.50;99.90
17172;DHT22;8701;50.150;8.756;2023-03-25T12:40:59;18.00;99.90
17172;DHT22;8701;50.150;8.756;2023-03-25T12:45:24;17.50;99.90
17172;DHT22;8701;50.150;8.756;2023-03-25T12:50:00;18.20;99.60
17172;DHT22;8701;50.150;8.756;2023-03-25T12:54:14;18.20;99.90
17172;DHT22;8701;50.150;8.756;2023-03-25T12:58:45;18.80;98.60
17172;DHT22;8701;50.150;8.756;2023-03-25T13:03:03;20.00;97.30
17172;DHT22;8701;50.150;8.756;2023-03-25T13:07:14;20.90;97.70
17172;DHT22;8701;50.150;8.756;2023-03-25T13:11:21;22.20;93.40
17172;DHT22;8701;50.150;8.756;2023-03-25T13:15:31;21.70;93.00
17172;DHT22;8701;50.150;8.756;2023-03-25T13:19:36;20.50;94.10
17172;DHT22;8701;50.150;8.756;2023-03-25T13:23:44;21.10;92.70
17172;DHT22;8701;50.150;8.756;2023-03-25T13:27:49;19.70;93.00
17172;DHT22;8701;50.150;8.756;2023-03-25T13:31:56;18.90;95.50
17172;DHT22;8701;50.150;8.756;2023-03-25T13:36:06;19.70;95.60
17172;DHT22;8701;50.150;8.756;2023-03-25T13:40:20;20.00;96.20
17172;DHT22;8701;50.150;8.756;2023-03-25T13:44:26;20.00;98.60
17172;DHT22;8701;50.150;8.756;2023-03-25T13:48:36;18.80;95.00
17172;DHT22;8701;50.150;8.756;2023-03-25T13:52:43;19.20;94.40
17172;DHT22;8701;50.150;8.756;2023-03-25T13:57:10;20.00;93.80
17172;DHT22;8701;50.150;8.756;2023-03-25T14:01:38;20.40;92.20
17172;DHT22;8701;50.150;8.756;2023-03-25T14:06:08;20.40;95.30
17172;DHT22;8701;50.150;8.756;2023-03-25T14:10:27;20.80;92.40
17172;DHT22;8701;50.150;8.756;2023-03-25T14:14:34;21.00;92.40
17172;DHT22;8701;50.150;8.756;2023-03-25T14:18:40;20.50;93.50
17172;DHT22;8701;50.150;8.756;2023-03-25T14:22:44;20.40;91.60
17172;DHT22;8701;50.150;8.756;2023-03-25T14:26:49;19.60;91.60
17172;DHT22;8701;50.150;8.756;2023-03-25T14:31:15;19.20;92.50
17172;DHT22;8701;50.150;8.756;2023-03-25T14:35:48;18.80;91.30
17172;DHT22;8701;50.150;8.756;2023-03-25T14:39:52;18.00;91.90
17172;DHT22;8701;50.150;8.756;2023-03-25T14:44:15;18.00;91.20
17172;DHT22;8701;50.150;8.756;2023-03-25T14:48:30;18.00;92.70
17172;DHT22;8701;50.150;8.756;2023-03-25T14:52:38;18.20;94.30
17172;DHT22;8701;50.150;8.756;2023-03-25T14:56:50;18.40;91.50
17172;DHT22;8701;50.150;8.756;2023-03-25T15:00:55;17.50;91.60
17172;DHT22;8701;50.150;8.756;2023-03-25T15:05:01;17.30;91.30
17172;DHT22;8701;50.150;8.756;2023-03-25T15:09:07;16.90;91.20
17172;DHT22;8701;50.150;8.756;2023-03-25T15:13:18;17.20;91.10
17172;DHT22;8701;50.150;8.756;2023-03-25T15:17:44;16.80;92.10
17172;DHT22;8701;50.150;8.756;2023-03-25T15:22:06;17.00;92.30
17172;DHT22;8701;50.150;8.756;2023-03-25T15:26:13;16.90;91.50
17172;DHT22;8701;50.150;8.756;2023-03-25T15:30:56;17.00;91.70
17172;DHT22;8701;50.150;8.756;2023-03-25T15:35:30;16.60;92.80
17172;DHT22;8701;50.150;8.756;2023-03-25T15:39:41;16.50;92.40
17172;DHT22;8701;50.150;8.756;2023-03-25T15:44:05;16.10;89.00
17172;DHT22;8701;50.150;8.756;2023-03-25T15:48:30;16.00;88.10
17172;DHT22;8701;50.150;8.756;2023-03-25T15:52:52;16.00;88.30
17172;DHT22;8701;50.150;8.756;2023-03-25T15:57:05;16.20;90.20
17172;DHT22;8701;50.150;8.756;2023-03-25T16:01:16;16.20;90.40
17172;DHT22;8701;50.150;8.756;2023-03-25T16:05:22;16.20;92.10
17172;DHT22;8701;50.150;8.756;2023-03-25T16:09:25;16.10;91.60
17172;DHT22;8701;50.150;8.756;2023-03-25T16:13:28;16.10;90.90
17172;DHT22;8701;50.150;8.756;2023-03-25T16:17:32;15.90;91.50
17172;DHT22;8701;50.150;8.756;2023-03-25T16:21:36;15.70;91.90
17172;DHT22;8701;50.150;8.756;2023-03-25T16:25:40;15.50;92.00
17172;DHT22;8701;50.150;8.756;2023-03-25T16:29:46;15.50;93.10
17172;DHT22;8701;50.150;8.756;2023-03-25T16:33:49;15.30;93.60
17172;DHT22;8701;50.150;8.756;2023-03-25T16:37:55;15.10;92.40
17172;DHT22;8701;50.150;8.756;2023-03-25T16:42:00;14.90;93.30
17172;DHT22;8701;50.150;8.756;2023-03-25T16:46:04;14.80;94.40
17172;DHT22;8701;50.150;8.756;2023-03-25T16:50:14;14.80;94.00
17172;DHT22;8701;50.150;8.756;2023-03-25T16:54:25;14.60;94.50
17172;DHT22;8701;50.150;8.756;2023-03-25T16:58:28;14.50;94.90
17172;DHT22;8701;50.150;8.756;2023-03-25T17:02:37;14.50;96.30
17172;DHT22;8701;50.150;8.756;2023-03-25T17:06:42;14.60;95.60
17172;DHT22;8701;50.150;8.756;2023-03-25T17:10:48;14.30;95.10
17172;DHT22;8701;50.150;8.756;2023-03-25T17:14:55;14.10;95.30
17172;DHT22;8701;50.150;8.756;2023-03-25T17:18:58;14.10;95.70
17172;DHT22;8701;50.150;8.756;2023-03-25T17:23:04;14.00;95.90
17172;DHT22;8701;50.150;8.756;2023-03-25T17:27:20;13.90;95.80
17172;DHT22;8701;50.150;8.756;2023-03-25T17:31:27;13.70;96.20
17172;DHT22;8701;50.150;8.756;2023-03-25T17:35:30;13.70;96.80
17172;DHT22;8701;50.150;8.756;2023-03-25T17:39:32;13.60;97.10
17172;DHT22;8701;50.150;8.756;2023-03-25T17:43:40;13.60;97.30
17172;DHT22;8701;50.150;8.756;2023-03-25T17:47:44;13.40;97.90
17172;DHT22;8701;50.150;8.756;2023-03-25T17:51:46;13.30;98.50
17172;DHT22;8701;50.150;8.756;2023-03-25T17:55:49;13.30;98.30
17172;DHT22;8701;50.150;8.756;2023-03-25T17:59:53;13.20;98.50
17172;DHT22;8701;50.150;8.756;2023-03-25T18:03:56;13.20;98.90
17172;DHT22;8701;50.150;8.756;2023-03-25T18:07:59;13.20;99.20
17172;DHT22;8701;50.150;8.756;2023-03-25T18:12:02;13.10;99.50
17172;DHT22;8701;50.150;8.756;2023-03-25T18:16:08;13.10;99.90
17172;DHT22;8701;50.150;8.756;2023-03-25T18:20:16;13.00;99.90
17172;DHT22;8701;50.150;8.756;2023-03-25T18:24:19;13.00;99.90
17172;DHT22;8701;50.150;8.756;2023-03-25T18:28:21;13.00;99.90
17172;DHT22;8701;50.150;8.756;2023-03-25T18:32:26;12.90;99.90
17172;DHT22;8701;50.150;8.756;2023-03-25T18:36:28;12.90;99.90
17172;DHT22;8701;50.150;8.756;2023-03-25T18:40:33;12.80;99.90
17172;DHT22;8701;50.150;8.756;2023-03-25T18:44:36;12.70;99.90
17172;DHT22;8701;50.150;8.756;2023-03-25T18:48:41;12.50;99.90
17172;DHT22;8701;50.150;8.756;2023-03-25T18:52:44;12.20;99.90
17172;DHT22;8701;50.150;8.756;2023-03-25T18:56:46;12.10;99.90
17172;DHT22;8701;50.150;8.756;2023-03-25T19:00:50;12.00;99.90
17172;DHT22;8701;50.150;8.756;2023-03-25T19:04:53;11.90;99.90
17172;DHT22;8701;50.150;8.756;2023-03-25T19:08:57;11.90;99.90
17172;DHT22;8701;50.150;8.756;2023-03-25T19:13:00;11.80;99.90
17172;DHT22;8701;50.150;8.756;2023-03-25T19:17:02;11.70;99.90
17172;DHT22;8701;50.150;8.756;2023-03-25T19:21:06;11.60;99.90
17172;DHT22;8701;50.150;8.756;2023-03-25T19:25:08;11.60;99.90
17172;DHT22;8701;50.150;8.756;2023-03-25T19:29:11;11.60;99.90
17172;DHT22;8701;50.150;8.756;2023-03-25T19:33:14;11.60;99.90
17172;DHT22;8701;50.150;8.756;2023-03-25T19:37:17;11.40;99.90
17172;DHT22;8701;50.150;8.756;2023-03-25T19:41:20;11.40;99.90
17172;DHT22;8701;50.150;8.756;2023-03-25T19:45:23;11.40;99.90
17172;DHT22;8701;50.150;8.756;2023-03-25T19:49:26;11.20;99.90
17172;DHT22;8701;50.150;8.756;2023-03-25T19:53:29;11.10;99.90
17172;DHT22;8701;50.150;8.756;2023-03-25T19:57:32;11.00;99.90
17172;DHT22;8701;50.150;8.756;2023-03-25T20:01:34;10.90;99.90
17172;DHT22;8701;50.150;8.756;2023-03-25T20:05:36;10.80;99.90
17172;DHT22;8701;50.150;8.756;2023-03-25T20:09:41;10.70;99.90
17172;DHT22;8701;50.150;8.756;2023-03-25T20:13:43;10.70;99.90
17172;DHT22;8701;50.150;8.756;2023-03-25T20:17:47;10.70;99.90
17172;DHT22;8701;50.150;8.756;2023-03-25T20:21:49;10.60;99.90
17172;DHT22;8701;50.150;8.756;2023-03-25T20:25:53;10.60;99.90
17172;DHT22;8701;50.150;8.756;2023-03-25T20:29:55;10.50;99.90
17172;DHT22;8701;50.150;8.756;2023-03-25T20:33:57;10.50;99.90
17172;DHT22;8701;50.150;8.756;2023-03-25T20:38:00;10.50;99.90
17172;DHT22;8701;50.150;8.756;2023-03-25T20:42:04;10.40;99.90
17172;DHT22;8701;50.150;8.756;2023-03-25T20:46:07;10.40;99.90
17172;DHT22;8701;50.150;8.756;2023-03-25T20:50:12;10.40;99.90
17172;DHT22;8701;50.150;8.756;2023-03-25T20:54:14;10.30;99.90
17172;DHT22;8701;50.150;8.756;2023-03-25T20:58:18;10.30;99.90
17172;DHT22;8701;50.150;8.756;2023-03-25T21:02:21;10.20;99.90
17172;DHT22;8701;50.150;8.756;2023-03-25T21:06:23;10.20;99.90
17172;DHT22;8701;50.150;8.756;2023-03-25T21:10:26;10.20;99.90
17172;DHT22;8701;50.150;8.756;2023-03-25T21:14:29;10.20;99.90
17172;DHT22;8701;50.150;8.756;2023-03-25T21:18:31;10.10;99.90
17172;DHT22;8701;50.150;8.756;2023-03-25T21:22:34;10.10;99.90
17172;DHT22;8701;50.150;8.756;2023-03-25T21:26:42;10.10;99.90
17172;DHT22;8701;50.150;8.756;2023-03-25T21:30:46;10.10;99.90
17172;DHT22;8701;50.150;8.756;2023-03-25T21:34:48;10.10;99.90
17172;DHT22;8701;50.150;8.756;2023-03-25T21:38:54;10.10;99.90
17172;DHT22;8701;50.150;8.756;2023-03-25T21:42:56;10.00;99.90
17172;DHT22;8701;50.150;8.756;2023-03-25T21:47:00;10.00;99.90
17172;DHT22;8701;50.150;8.756;2023-03-25T21:51:07;10.00;99.90
17172;DHT22;8701;50.150;8.756;2023-03-25T21:55:14;10.10;99.90
17172;DHT22;8701;50.150;8.756;2023-03-25T21:59:17;10.10;99.90
17172;DHT22;8701;50.150;8.756;2023-03-25T22:03:20;10.10;99.90
17172;DHT22;8701;50.150;8.756;2023-03-25T22:07:23;10.10;99.90
17172;DHT22;8701;50.150;8.756;2023-03-25T22:11:27;10.10;99.90
17172;DHT22;8701;50.150;8.756;2023-03-25T22:15:30;10.10;99.90
17172;DHT22;8701;50.150;8.756;2023-03-25T22:19:33;10.00;99.90
17172;DHT22;8701;50.150;8.756;2023-03-25T22:23:36;10.00;99.90
17172;DHT22;8701;50.150;8.756;2023-03-25T22:27:38;10.00;99.90
17172;DHT22;8701;50.150;8.756;2023-03-25T22:31:40;10.00;99.90
17172;DHT22;8701;50.150;8.756;2023-03-25T22:35:44;9.90;99.90
17172;DHT22;8701;50.150;8.756;2023-03-25T22:39:46;9.90;99.90
17172;DHT22;8701;50.150;8.756;2023-03-25T22:43:48;9.80;99.90
17172;DHT22;8701;50.150;8.756;2023-03-25T22:47:50;9.90;99.90
17172;DHT22;8701;50.150;8.756;2023-03-25T22:51:54;9.90;99.90
17172;DHT22;8701;50.150;8.756;2023-03-25T22:55:56;9.90;99.90
17172;DHT22;8701;50.150;8.756;2023-03-25T22:59:59;9.90;99.90
17172;DHT22;8701;50.150;8.756;2023-03-25T23:04:01;9.90;99.90
17172;DHT22;8701;50.150;8.756;2023-03-25T23:08:06;9.90;99.90
17172;DHT22;8701;50.150;8.756;2023-03-25T23:12:09;9.90;99.90
17172;DHT22;8701;50.150;8.756;2023-03-25T23:16:13;9.80;99.90
17172;DHT22;8701;50.150;8.756;2023-03-25T23:20:16;9.80;99.90
17172;DHT22;8701;50.150;8.756;2023-03-25T23:24:20;9.80;99.90
17172;DHT22;8701;50.150;8.756;2023-03-25T23:28:22;9.70;99.90
17172;DHT22;8701;50.150;8.756;2023-03-25T23:32:26;9.60;99.90
17172;DHT22;8701;50.150;8.756;2023-03-25T23:36:30;9.50;99.90
17172;DHT22;8701;50.150;8.756;2023-03-25T23:40:34;9.40;99.90
17172;DHT22;8701;50.150;8.756;2023-03-25T23:44:36;9.40;99.90
17172;DHT22;8701;50.150;8.756;2023-03-25T23:48:38;9.30;99.90
17172;DHT22;8701;50.150;8.756;2023-03-25T23:52:41;9.30;99.90
17172;DHT22;8701;50.150;8.756;2023-03-25T23:56:45;9.30;99.90
